Eppley Airfield
KOMA : rendu visible

Aérodrome :











RETROUVEZ-NOUS SUR...

 
LOGIN :

S'inscrire | Disclaimer

   EN    FR    IT 

 









Légende :    VFR   VFR Marginal   IFR   IFR Intensif   IFR Très Intensif
Visi : 
Plafond : 
>= 8 km
>= 3000ft
5 à 8 km
1000 à 3000 ft
1500m à 5 km
500 à 1000 ft
800 à 1500m
200 à 500 ft
< 800m
< 200 ft
Symboles :   Orages  Brouillard  Fortes neiges  Fortes précipitations  Vent > 20 kt






- Altitude de l'aérodrome : 984 ft
- Code IATA : OMA


KOMA - Eppley

DERNIER METAR :
  • 190152Z 32013KT 10SM BKN250 M11/M17 A3039 RMK AO2 SLP309 T11111172 $

METARs EXPIRÉS :
  • 190052Z 32013KT 10SM BKN250 M11/M16 A3036 RMK AO2 SLP300 T11061161 $
  • 182352Z COR 32010KT 10SM BKN250 M10/M15 A3034 RMK AO2 SLP292 4/002 T11001150 11078 21100 51017 $

TAF KOMA
Valide du 19 à 00h jusqu'au 20 à 00h UTC


182320Z 1900/1924 31015KT P6SM SCT250 WS020/31045KT
FM190800 33015KT P6SM SKC



MET'MAP, la Météo Aéronautique d'un coup d'oeil ! - Copyright ORBIFLY Décembre 2007 - Disclaimer

ORBIFLY MET'MAP TEAM :

Programmation & Développement : Alexandra Zaïnal
Sur une idée originale de : Baudouin d'Aumeries
Assistance à la programmation : Marc-Olivier Méhu
Soutien technique & logistique : Manuel Goepfert

Contact : metmap@orbifly.com




SOURCES & CREDITS :

   NOAA       Earth
Advisory